Time;durP1;ratioP1;P1;durP2;ratioP2;P2;SDS_P1;SDS_P2;PMS_P1;PMS_P2;Temp;Humidity;BMP_temperature;BMP_pressure;BME280_temperature;BME280_humidity;BME280_pressure;Samples;Min_cycle;Max_cycle;Signal;HPM_P1;HPM_P2
2021/08/27 00:00:17;;;;;;;7.03;2.67;;;15.40;99.90;;;;;;6133611;23;20178;-84
2021/08/27 00:02:44;;;;;;;5.53;2.30;;;15.30;99.90;;;;;;6133498;23;20181;-84
2021/08/27 00:05:13;;;;;;;4.47;2.13;;;15.20;99.90;;;;;;6133445;23;20614;-85
2021/08/27 00:07:40;;;;;;;3.17;1.90;;;15.20;99.90;;;;;;6135669;23;20220;-84
2021/08/27 00:10:08;;;;;;;3.33;1.83;;;15.10;99.90;;;;;;6135902;23;20202;-85
2021/08/27 00:12:36;;;;;;;5.75;1.67;;;15.10;99.90;;;;;;6136997;23;20677;-85
2021/08/27 00:15:08;;;;;;;7.60;1.70;;;15.00;99.90;;;;;;6138807;23;20174;-83
2021/08/27 00:17:36;;;;;;;4.43;1.98;;;15.00;99.90;;;;;;6139654;23;20201;-84
2021/08/27 00:20:04;;;;;;;5.93;2.28;;;14.90;99.90;;;;;;6140767;23;20170;-84
2021/08/27 00:22:37;;;;;;;5.43;2.33;;;14.90;99.90;;;;;;6139733;23;20231;-84
2021/08/27 00:25:05;;;;;;;4.90;2.58;;;14.70;99.90;;;;;;6139703;23;20184;-82
2021/08/27 00:27:33;;;;;;;5.00;2.72;;;14.90;99.90;;;;;;6140637;23;20189;-83
2021/08/27 00:30:01;;;;;;;4.00;2.17;;;14.80;99.90;;;;;;6140017;23;20197;-82
2021/08/27 00:32:32;;;;;;;8.77;2.35;;;14.80;99.90;;;;;;6141470;23;20181;-84
2021/08/27 00:35:03;;;;;;;8.13;2.35;;;14.80;99.90;;;;;;6142481;23;20187;-84
2021/08/27 00:37:52;;;;;;;6.85;2.05;;;14.80;99.90;;;;;;6143099;23;20197;-84
2021/08/27 00:40:35;;;;;;;3.85;2.08;;;14.70;99.90;;;;;;6141602;23;20184;-84
2021/08/27 00:43:05;;;;;;;2.78;2.00;;;14.80;99.90;;;;;;6140717;23;20177;-83
2021/08/27 00:45:38;;;;;;;2.90;1.75;;;14.70;99.90;;;;;;6139970;23;20184;-83
2021/08/27 00:48:06;;;;;;;3.47;1.83;;;14.70;99.90;;;;;;6140199;23;20201;-83
2021/08/27 00:50:42;;;;;;;4.50;2.00;;;14.70;99.90;;;;;;6140624;23;20197;-83
2021/08/27 00:53:15;;;;;;;4.68;2.38;;;14.70;99.90;;;;;;6143021;23;20180;-83
2021/08/27 00:55:58;;;;;;;5.78;1.80;;;14.80;99.90;;;;;;6150395;23;20205;-84
2021/08/27 01:01:26;;;;;;;3.50;2.05;;;14.80;99.90;;;;;;6141080;23;20177;-83
2021/08/27 01:03:58;;;;;;;4.30;2.53;;;14.80;99.90;;;;;;6143180;23;20173;-84
2021/08/27 01:06:43;;;;;;;7.00;3.03;;;15.00;99.90;;;;;;6152598;23;20193;-85
2021/08/27 01:09:22;;;;;;;4.80;2.00;;;15.10;99.90;;;;;;6154117;23;20229;-85
2021/08/27 01:14:35;;;;;;;3.65;1.90;;;15.20;99.90;;;;;;6156917;23;20251;-69
2021/08/27 01:17:08;;;;;;;4.32;1.88;;;15.20;99.90;;;;;;6128245;23;20204;-70
2021/08/27 01:20:19;;;;;;;3.85;1.75;;;15.20;99.90;;;;;;6127476;23;20217;-73
2021/08/27 01:23:15;;;;;;;3.88;2.05;;;15.20;99.90;;;;;;6036263;23;20185;-71
2021/08/27 01:25:49;;;;;;;6.82;2.30;;;15.20;99.90;;;;;;6126208;23;20204;-71
2021/08/27 01:28:17;;;;;;;5.28;2.03;;;15.20;99.90;;;;;;6099893;23;20251;-72
2021/08/27 01:30:58;;;;;;;2.38;1.73;;;15.20;99.90;;;;;;6125602;23;20166;-73
2021/08/27 01:33:27;;;;;;;5.45;2.00;;;15.20;99.90;;;;;;6126424;23;20166;-73
2021/08/27 01:36:00;;;;;;;6.22;2.80;;;15.20;99.90;;;;;;6127346;23;20201;-72
2021/08/27 01:38:33;;;;;;;6.97;3.78;;;15.20;99.90;;;;;;6127406;23;20158;-72
2021/08/27 01:41:01;;;;;;;3.53;2.10;;;15.20;99.90;;;;;;6124633;23;20186;-71
2021/08/27 01:43:30;;;;;;;2.38;1.70;;;15.20;99.90;;;;;;6127568;23;20502;-73
2021/08/27 01:46:00;;;;;;;4.13;1.70;;;15.10;99.90;;;;;;6126402;23;20225;-72
2021/08/27 01:48:31;;;;;;;3.90;2.00;;;15.10;99.90;;;;;;6127070;23;20177;-71
2021/08/27 01:51:00;;;;;;;5.13;2.53;;;15.10;99.90;;;;;;6126302;23;20162;-71
2021/08/27 01:53:28;;;;;;;7.50;2.47;;;15.00;99.90;;;;;;6126897;23;20162;-71
2021/08/27 01:55:58;;;;;;;4.93;2.05;;;14.90;99.90;;;;;;6126596;23;20205;-72
2021/08/27 01:58:26;;;;;;;5.35;2.13;;;14.90;99.90;;;;;;6126945;23;20166;-71
2021/08/27 02:00:55;;;;;;;5.88;2.40;;;14.80;99.90;;;;;;6126091;23;20196;-71
2021/08/27 02:03:24;;;;;;;3.50;1.75;;;14.80;99.90;;;;;;6126401;23;20657;-69
2021/08/27 02:05:52;;;;;;;8.55;2.85;;;14.70;99.90;;;;;;6126298;23;20198;-72
2021/08/27 02:08:22;;;;;;;4.22;2.00;;;14.60;99.90;;;;;;6126742;23;20475;-72
2021/08/27 02:10:52;;;;;;;2.95;1.40;;;14.60;99.90;;;;;;6126030;23;20169;-72
2021/08/27 02:13:20;;;;;;;4.60;2.00;;;14.60;99.90;;;;;;6126429;23;20211;-71
2021/08/27 02:15:49;;;;;;;3.75;2.28;;;14.60;99.90;;;;;;6126133;23;20201;-71
2021/08/27 02:18:16;;;;;;;6.25;2.03;;;14.60;99.90;;;;;;6125388;23;20166;-72
2021/08/27 02:20:43;;;;;;;4.90;2.58;;;14.50;99.90;;;;;;6124732;23;20189;-72
2021/08/27 02:23:11;;;;;;;3.20;2.25;;;14.50;99.90;;;;;;6126129;23;20609;-70
2021/08/27 02:25:45;;;;;;;4.78;1.67;;;14.50;99.90;;;;;;6126259;23;20198;-71
2021/08/27 02:28:14;;;;;;;3.38;2.20;;;14.50;99.90;;;;;;6100786;23;20707;-74
2021/08/27 02:30:42;;;;;;;3.35;1.98;;;14.50;99.90;;;;;;6126598;23;20484;-71
2021/08/27 02:33:11;;;;;;;7.80;2.58;;;14.50;99.90;;;;;;6126534;23;20165;-73
2021/08/27 02:35:40;;;;;;;4.05;2.42;;;14.50;99.90;;;;;;6125537;23;20202;-73
2021/08/27 02:38:12;;;;;;;5.63;1.80;;;14.50;99.90;;;;;;6126263;23;20205;-70
2021/08/27 02:40:40;;;;;;;3.88;2.42;;;14.50;99.90;;;;;;6126660;23;20190;-72
2021/08/27 02:43:09;;;;;;;3.10;1.80;;;14.60;99.90;;;;;;6126769;23;20256;-71
2021/08/27 02:45:36;;;;;;;8.30;2.88;;;14.50;99.90;;;;;;6125987;23;20229;-72
2021/08/27 02:48:04;;;;;;;5.93;3.45;;;14.60;99.90;;;;;;6125210;23;20169;-71
2021/08/27 02:50:38;;;;;;;9.70;5.55;;;14.70;99.90;;;;;;6126179;23;20166;-71
2021/08/27 02:53:10;;;;;;;4.28;2.50;;;14.70;99.90;;;;;;6099558;23;20500;-71
2021/08/27 02:55:44;;;;;;;6.65;3.35;;;14.80;99.90;;;;;;6125606;23;20301;-72
2021/08/27 02:58:16;;;;;;;11.52;3.35;;;14.80;99.90;;;;;;6126412;23;20180;-73
2021/08/27 03:00:54;;;;;;;4.95;3.08;;;14.90;99.90;;;;;;6126039;23;20186;-71
2021/08/27 03:03:23;;;;;;;4.38;2.00;;;14.90;99.90;;;;;;6125926;23;20211;-72
2021/08/27 03:05:57;;;;;;;10.88;3.65;;;14.90;99.90;;;;;;6126321;23;20541;-72
2021/08/27 03:08:25;;;;;;;7.95;2.97;;;14.80;99.90;;;;;;6125845;23;20162;-71
2021/08/27 03:11:02;;;;;;;4.90;2.90;;;14.90;99.90;;;;;;6125476;23;20164;-72
2021/08/27 03:13:42;;;;;;;6.00;2.70;;;14.90;99.90;;;;;;6125565;23;20706;-72
2021/08/27 03:16:12;;;;;;;4.75;2.30;;;14.90;99.90;;;;;;6125757;23;20197;-71
2021/08/27 03:18:45;;;;;;;5.43;2.67;;;15.00;99.90;;;;;;6125856;23;20609;-73
2021/08/27 03:21:17;;;;;;;10.75;3.25;;;15.00;99.90;;;;;;6125658;23;20186;-72
2021/08/27 03:23:48;;;;;;;5.43;2.70;;;15.00;99.90;;;;;;6126380;23;20169;-72
2021/08/27 03:26:21;;;;;;;9.75;3.10;;;15.00;99.90;;;;;;6125689;23;20208;-73
2021/08/27 03:28:54;;;;;;;4.82;3.00;;;15.00;99.90;;;;;;6125833;23;20610;-71
2021/08/27 03:31:24;;;;;;;5.40;2.50;;;15.00;99.90;;;;;;6126092;23;20162;-71
2021/08/27 03:33:52;;;;;;;6.07;3.25;;;15.10;99.90;;;;;;6126350;23;20162;-71
2021/08/27 03:36:20;;;;;;;9.07;3.10;;;15.10;99.90;;;;;;6125872;23;20253;-74
2021/08/27 03:38:47;;;;;;;4.10;2.08;;;15.20;99.90;;;;;;6126629;23;20162;-71
2021/08/27 03:41:17;;;;;;;4.35;2.17;;;15.20;99.90;;;;;;6125928;23;20177;-72
2021/08/27 03:43:45;;;;;;;8.10;3.53;;;15.20;99.90;;;;;;6126795;23;20166;-72
2021/08/27 03:46:13;;;;;;;16.10;3.40;;;15.20;99.90;;;;;;6126191;23;20204;-72
2021/08/27 03:48:41;;;;;;;4.25;2.88;;;15.20;99.90;;;;;;6127413;23;20213;-72
2021/08/27 03:51:10;;;;;;;6.63;2.15;;;15.20;99.90;;;;;;6127891;23;20164;-73
2021/08/27 03:53:39;;;;;;;4.28;1.80;;;15.30;99.90;;;;;;6128218;23;20162;-70
2021/08/27 03:56:09;;;;;;;5.93;2.45;;;15.30;99.90;;;;;;6127397;23;20699;-72
2021/08/27 03:58:38;;;;;;;4.93;2.00;;;15.30;99.90;;;;;;6128770;23;20169;-72
2021/08/27 04:01:06;;;;;;;4.05;2.20;;;15.30;99.90;;;;;;6127325;23;20186;-71
2021/08/27 04:03:35;;;;;;;6.03;3.20;;;15.30;99.90;;;;;;6127618;23;20222;-72
2021/08/27 04:06:03;;;;;;;5.25;2.03;;;15.30;99.90;;;;;;6127653;23;20654;-72
2021/08/27 04:08:33;;;;;;;6.05;2.65;;;15.40;99.90;;;;;;6127338;23;20637;-73
2021/08/27 04:11:01;;;;;;;7.70;2.58;;;15.40;99.90;;;;;;6127148;23;20162;-72
2021/08/27 04:13:28;;;;;;;3.90;1.90;;;15.40;99.90;;;;;;6127255;23;20192;-72
2021/08/27 04:15:57;;;;;;;6.65;2.20;;;15.50;99.90;;;;;;6127607;23;20224;-71
2021/08/27 04:18:24;;;;;;;4.13;1.85;;;15.50;99.90;;;;;;6127473;23;20496;-72
2021/08/27 04:20:51;;;;;;;5.05;1.98;;;15.60;99.90;;;;;;6128042;23;20173;-72
2021/08/27 04:23:18;;;;;;;6.63;2.40;;;15.60;99.90;;;;;;6127458;23;20162;-71
2021/08/27 04:25:46;;;;;;;5.75;1.92;;;15.70;99.90;;;;;;6127411;23;20711;-71
2021/08/27 04:28:13;;;;;;;7.43;2.40;;;15.70;99.90;;;;;;6127712;23;20244;-72
2021/08/27 04:30:41;;;;;;;4.63;2.72;;;15.70;99.90;;;;;;6127195;23;20617;-72
2021/08/27 04:33:09;;;;;;;3.65;2.08;;;15.80;99.90;;;;;;6127205;23;20197;-70
2021/08/27 04:35:36;;;;;;;5.80;2.53;;;15.80;99.90;;;;;;6126894;23;20216;-72
2021/08/27 04:38:03;;;;;;;4.93;2.20;;;15.80;99.90;;;;;;6127497;23;20172;-71
2021/08/27 04:40:31;;;;;;;5.03;2.30;;;15.80;99.90;;;;;;6127957;23;20166;-71
2021/08/27 04:42:58;;;;;;;3.65;2.08;;;15.80;99.90;;;;;;6126790;23;20193;-71
2021/08/27 04:45:25;;;;;;;3.35;2.40;;;15.90;99.90;;;;;;6126569;23;20217;-71
2021/08/27 04:47:52;;;;;;;2.05;1.55;;;15.80;99.90;;;;;;6126523;23;20166;-72
2021/08/27 04:50:21;;;;;;;4.15;2.30;;;15.90;99.90;;;;;;6127057;23;20168;-73
2021/08/27 04:52:51;;;;;;;4.88;1.95;;;15.90;99.90;;;;;;6126652;23;20160;-73
2021/08/27 04:55:18;;;;;;;8.15;3.03;;;15.90;99.90;;;;;;6127265;23;20202;-71
2021/08/27 04:57:46;;;;;;;10.40;2.33;;;15.90;99.90;;;;;;6127613;23;20249;-73
2021/08/27 05:00:15;;;;;;;10.98;3.03;;;15.90;99.90;;;;;;6127810;23;20172;-73
2021/08/27 05:02:44;;;;;;;13.50;3.72;;;16.00;99.90;;;;;;6127256;23;20203;-74
2021/08/27 05:05:12;;;;;;;6.40;2.78;;;16.00;99.90;;;;;;6127371;23;20204;-72
2021/08/27 05:07:41;;;;;;;7.15;2.75;;;16.10;99.90;;;;;;6127404;23;20203;-72
2021/08/27 05:10:09;;;;;;;6.65;3.05;;;16.20;99.90;;;;;;6127674;23;20602;-72
2021/08/27 05:12:36;;;;;;;6.40;2.42;;;16.10;99.90;;;;;;6126328;23;20181;-72
2021/08/27 05:15:04;;;;;;;10.23;3.55;;;16.10;99.90;;;;;;6126659;23;20203;-74
2021/08/27 05:17:32;;;;;;;6.20;3.10;;;16.10;99.90;;;;;;6126622;23;20171;-72
2021/08/27 05:19:59;;;;;;;8.27;3.08;;;16.20;99.90;;;;;;6126353;23;20523;-71
2021/08/27 05:22:26;;;;;;;8.40;2.42;;;16.20;99.90;;;;;;6125267;23;20196;-72
2021/08/27 05:24:55;;;;;;;7.72;3.35;;;16.30;99.90;;;;;;6126705;23;20497;-73
2021/08/27 05:27:22;;;;;;;6.38;2.63;;;16.30;99.90;;;;;;6126988;23;20230;-72
2021/08/27 05:29:49;;;;;;;4.15;2.10;;;16.40;99.90;;;;;;6127331;23;20487;-71
2021/08/27 05:32:16;;;;;;;5.68;2.95;;;16.40;99.90;;;;;;6126411;23;20261;-72
2021/08/27 05:34:45;;;;;;;7.03;2.60;;;16.40;99.90;;;;;;6126678;23;20174;-71
2021/08/27 05:37:12;;;;;;;3.67;2.40;;;16.30;99.90;;;;;;6126841;23;20617;-72
2021/08/27 05:39:39;;;;;;;3.63;2.22;;;16.30;99.90;;;;;;6126493;23;20226;-72
2021/08/27 05:42:08;;;;;;;4.15;2.30;;;16.40;99.90;;;;;;6126490;23;20270;-71
2021/08/27 05:44:35;;;;;;;4.38;2.25;;;16.40;99.90;;;;;;6126706;23;20230;-73
2021/08/27 05:47:03;;;;;;;6.10;2.15;;;16.40;99.90;;;;;;6125379;23;20201;-72
2021/08/27 05:49:30;;;;;;;4.88;2.15;;;16.30;99.90;;;;;;6125725;23;20190;-72
2021/08/27 05:51:57;;;;;;;4.47;1.95;;;16.30;99.90;;;;;;6124802;23;20163;-72
2021/08/27 05:54:26;;;;;;;3.28;1.70;;;16.40;99.90;;;;;;6126002;23;20164;-70
2021/08/27 05:56:53;;;;;;;9.75;4.22;;;16.40;99.90;;;;;;6125971;23;20211;-69
2021/08/27 05:59:21;;;;;;;7.05;3.47;;;16.40;99.90;;;;;;6125332;23;20560;-70
2021/08/27 06:01:49;;;;;;;10.18;3.90;;;16.50;99.90;;;;;;6124996;23;20204;-69
2021/08/27 06:04:16;;;;;;;5.50;2.40;;;16.50;99.90;;;;;;6126225;23;20162;-68
2021/08/27 06:06:48;;;;;;;4.93;2.45;;;16.60;99.90;;;;;;6125688;23;20210;-68
2021/08/27 06:09:15;;;;;;;4.53;2.45;;;16.70;99.90;;;;;;6125581;23;20200;-67
2021/08/27 06:11:42;;;;;;;5.10;2.08;;;16.70;99.90;;;;;;6124668;23;20527;-69
2021/08/27 06:14:10;;;;;;;7.03;2.03;;;16.70;99.90;;;;;;6125980;23;20186;-68
2021/08/27 06:16:38;;;;;;;11.10;3.67;;;16.70;99.90;;;;;;6125743;23;20509;-69
2021/08/27 06:19:05;;;;;;;3.20;2.05;;;16.80;99.90;;;;;;6126202;23;20163;-68
2021/08/27 06:21:33;;;;;;;3.70;2.55;;;16.80;99.90;;;;;;6125937;23;20164;-68
2021/08/27 06:24:00;;;;;;;10.57;2.55;;;16.90;99.90;;;;;;6125924;23;20163;-68
2021/08/27 06:26:28;;;;;;;6.65;2.17;;;16.90;99.90;;;;;;6126440;23;20201;-69
2021/08/27 06:28:58;;;;;;;5.78;2.83;;;17.00;99.90;;;;;;6125622;23;20173;-69
2021/08/27 06:31:25;;;;;;;7.10;2.70;;;17.00;99.90;;;;;;6125263;23;20218;-69
2021/08/27 06:33:54;;;;;;;9.02;2.90;;;17.10;99.90;;;;;;6125576;23;20185;-68
2021/08/27 06:36:22;;;;;;;8.80;2.33;;;17.30;99.90;;;;;;6125175;23;20227;-69
2021/08/27 06:38:49;;;;;;;7.37;1.90;;;17.30;99.90;;;;;;6125805;23;20496;-68
2021/08/27 06:41:16;;;;;;;9.50;2.53;;;17.30;99.90;;;;;;6125170;23;20408;-68
2021/08/27 06:43:46;;;;;;;5.00;2.40;;;17.40;99.90;;;;;;6125773;23;20436;-67
2021/08/27 06:46:17;;;;;;;5.00;2.83;;;17.40;99.90;;;;;;6125499;23;20433;-69
2021/08/27 06:48:44;;;;;;;5.13;2.40;;;17.40;99.90;;;;;;6125092;23;20393;-68
2021/08/27 06:51:13;;;;;;;12.13;2.92;;;17.40;99.90;;;;;;6125252;23;20199;-69
2021/08/27 06:53:42;;;;;;;5.05;2.47;;;17.30;99.90;;;;;;6126248;23;20515;-69
2021/08/27 06:56:09;;;;;;;10.20;2.63;;;17.40;99.90;;;;;;6125768;23;20200;-68
2021/08/27 06:58:36;;;;;;;6.72;2.58;;;17.40;99.90;;;;;;6125541;23;20700;-69
2021/08/27 07:01:04;;;;;;;7.90;3.10;;;17.50;99.90;;;;;;6125222;23;20169;-69
2021/08/27 07:03:31;;;;;;;3.17;1.90;;;17.60;99.90;;;;;;6124824;23;20433;-68
2021/08/27 07:05:58;;;;;;;9.50;2.23;;;17.60;99.90;;;;;;6125802;23;20732;-67
2021/08/27 07:08:27;;;;;;;5.03;2.00;;;17.60;99.90;;;;;;6125398;23;20396;-68
2021/08/27 07:10:54;;;;;;;3.67;2.17;;;17.60;99.90;;;;;;6126289;23;20397;-68
2021/08/27 07:13:21;;;;;;;3.83;2.27;;;17.60;99.90;;;;;;6124639;23;20421;-68
2021/08/27 07:15:50;;;;;;;5.77;2.00;;;17.60;99.90;;;;;;6125462;23;20459;-67
2021/08/27 07:18:17;;;;;;;3.73;2.10;;;17.60;99.90;;;;;;6124802;23;20408;-69
2021/08/27 07:20:45;;;;;;;4.67;1.80;;;17.60;99.90;;;;;;6125617;23;20397;-69
2021/08/27 07:23:14;;;;;;;3.70;1.60;;;17.60;99.90;;;;;;6126082;23;20451;-69
2021/08/27 07:25:42;;;;;;;3.97;2.10;;;17.70;99.90;;;;;;6126597;23;20498;-67
2021/08/27 07:28:09;;;;;;;9.50;2.10;;;17.70;99.90;;;;;;6126973;23;20766;-68
2021/08/27 07:30:37;;;;;;;5.40;1.70;;;17.60;99.90;;;;;;6127122;23;20398;-67
2021/08/27 07:33:04;;;;;;;7.97;2.23;;;17.60;99.90;;;;;;6126842;23;20400;-67
2021/08/27 07:35:32;;;;;;;4.40;1.93;;;17.60;99.90;;;;;;6126709;23;20431;-68
2021/08/27 07:37:59;;;;;;;3.80;1.93;;;17.50;99.90;;;;;;6127438;23;20433;-66
2021/08/27 07:40:27;;;;;;;2.67;1.60;;;17.50;99.90;;;;;;6127352;23;20393;-67
2021/08/27 07:42:55;;;;;;;2.03;1.65;;;17.40;99.90;;;;;;6126497;23;20524;-68
2021/08/27 07:45:24;;;;;;;5.13;2.83;;;17.40;99.90;;;;;;6126725;23;20220;-66
2021/08/27 07:47:51;;;;;;;4.97;1.80;;;17.30;99.90;;;;;;6126926;23;20400;-68
2021/08/27 07:50:19;;;;;;;3.63;1.95;;;17.20;99.90;;;;;;6126748;23;20172;-69
2021/08/27 07:52:46;;;;;;;3.10;1.85;;;17.20;99.90;;;;;;6126617;23;20220;-69
2021/08/27 07:55:13;;;;;;;5.50;2.10;;;17.10;99.90;;;;;;6126586;23;20208;-67
2021/08/27 07:57:42;;;;;;;3.17;1.70;;;17.10;99.90;;;;;;6126989;23;20243;-67
2021/08/27 08:00:12;;;;;;;4.10;2.15;;;17.00;99.90;;;;;;6127299;23;20422;-67
2021/08/27 08:02:39;;;;;;;8.50;3.00;;;16.90;99.90;;;;;;6126671;23;20517;-67
2021/08/27 08:05:07;;;;;;;6.82;2.20;;;16.90;99.90;;;;;;6126577;23;20504;-68
2021/08/27 08:07:37;;;;;;;4.50;3.17;;;16.90;99.90;;;;;;6127259;23;20164;-67
2021/08/27 08:10:04;;;;;;;5.00;1.90;;;16.90;99.90;;;;;;6127114;23;20403;-68
2021/08/27 08:12:32;;;;;;;7.90;2.20;;;16.90;99.90;;;;;;6126292;23;20501;-67
2021/08/27 08:14:59;;;;;;;4.10;2.90;;;16.90;99.90;;;;;;6127118;23;20482;-68
2021/08/27 08:17:28;;;;;;;5.75;2.40;;;16.90;99.90;;;;;;6126822;23;20169;-68
2021/08/27 08:19:55;;;;;;;3.43;1.97;;;17.00;99.90;;;;;;6126800;23;20492;-68
2021/08/27 08:22:23;;;;;;;4.28;2.47;;;17.20;99.90;;;;;;6125901;23;20438;-68
2021/08/27 08:24:50;;;;;;;7.20;2.50;;;17.60;99.90;;;;;;6126331;23;20627;-68
2021/08/27 08:27:17;;;;;;;2.80;2.50;;;17.90;99.90;;;;;;6126522;23;20400;-67
2021/08/27 08:29:44;;;;;;;3.10;2.40;;;18.20;99.90;;;;;;6127147;23;20393;-68
2021/08/27 08:32:12;;;;;;;5.20;2.23;;;18.40;99.90;;;;;;6126122;23;20402;-68
2021/08/27 08:34:40;;;;;;;5.17;3.00;;;18.50;99.90;;;;;;6126048;23;20405;-68
2021/08/27 08:37:09;;;;;;;4.47;1.67;;;18.60;99.90;;;;;;6126332;23;20857;-67
2021/08/27 08:39:37;;;;;;;4.30;1.97;;;18.90;99.90;;;;;;6126555;23;20413;-68
2021/08/27 08:42:04;;;;;;;5.87;2.60;;;19.40;99.90;;;;;;6126582;23;20394;-67
2021/08/27 08:44:32;;;;;;;3.77;1.77;;;19.70;99.90;;;;;;6126607;23;20397;-67
2021/08/27 08:47:02;;;;;;;7.33;2.43;;;19.50;99.90;;;;;;6126869;23;20771;-67
2021/08/27 08:49:30;;;;;;;3.87;2.80;;;19.30;99.90;;;;;;6125885;23;20493;-67
2021/08/27 08:52:00;;;;;;;4.60;2.80;;;18.90;99.90;;;;;;6126098;23;20409;-68
2021/08/27 08:54:27;;;;;;;3.27;2.10;;;18.50;99.90;;;;;;6126167;23;20414;-69
2021/08/27 08:57:01;;;;;;;3.30;2.00;;;18.40;99.90;;;;;;6126377;23;20437;-68
2021/08/27 08:59:29;;;;;;;4.80;2.37;;;18.00;99.90;;;;;;6126276;23;20407;-68
2021/08/27 09:01:57;;;;;;;3.50;2.37;;;17.90;99.90;;;;;;6125827;23;20483;-66
2021/08/27 09:04:27;;;;;;;5.03;2.37;;;17.90;99.90;;;;;;6126275;23;20440;-68
2021/08/27 09:06:56;;;;;;;4.43;2.50;;;17.90;99.90;;;;;;6126413;23;20472;-70
2021/08/27 09:09:34;;;;;;;5.20;2.50;;;18.00;99.90;;;;;;6126613;23;20396;-68
2021/08/27 09:12:17;;;;;;;3.30;1.90;;;17.90;99.90;;;;;;6125799;23;20164;-67
2021/08/27 09:14:56;;;;;;;8.43;2.80;;;17.90;99.90;;;;;;6127122;23;20225;-67
2021/08/27 09:17:32;;;;;;;2.53;2.33;;;17.90;99.90;;;;;;6100211;23;20955;-68
2021/08/27 09:19:59;;;;;;;3.90;2.07;;;17.90;99.90;;;;;;6126706;23;20774;-67
2021/08/27 09:22:44;;;;;;;9.13;2.58;;;17.90;99.90;;;;;;6125528;23;20392;-68
2021/08/27 09:25:14;;;;;;;6.53;2.28;;;17.80;99.90;;;;;;6126096;23;20207;-68
2021/08/27 09:28:03;;;;;;;5.30;2.67;;;17.70;99.90;;;;;;6126154;23;20165;-69
2021/08/27 09:30:31;;;;;;;4.57;2.85;;;17.60;99.90;;;;;;6125933;23;20173;-68
2021/08/27 09:33:07;;;;;;;7.15;2.75;;;17.60;99.90;;;;;;6125299;23;20166;-67
2021/08/27 09:35:34;;;;;;;5.85;2.25;;;17.60;99.90;;;;;;6126165;23;20210;-67
2021/08/27 09:38:01;;;;;;;6.00;3.30;;;17.70;99.90;;;;;;6126212;23;20541;-67
2021/08/27 09:40:32;;;;;;;7.95;3.00;;;17.90;99.90;;;;;;6125978;23;20165;-68
2021/08/27 09:43:01;;;;;;;4.15;2.75;;;18.00;99.90;;;;;;6125175;23;20232;-66
2021/08/27 09:45:36;;;;;;;6.07;2.70;;;18.10;99.90;;;;;;6125367;23;20243;-67
2021/08/27 09:48:05;;;;;;;3.73;2.33;;;18.30;99.90;;;;;;6125652;23;20400;-66
2021/08/27 09:50:34;;;;;;;4.40;2.50;;;18.50;99.90;;;;;;6126396;23;20389;-68
2021/08/27 09:53:03;;;;;;;4.37;2.20;;;18.90;99.90;;;;;;6125628;23;20397;-68
2021/08/27 09:55:34;;;;;;;4.90;2.93;;;19.30;99.90;;;;;;6126002;23;20430;-67
2021/08/27 09:58:06;;;;;;;7.60;3.40;;;19.50;99.90;;;;;;6125246;23;20402;-69
2021/08/27 10:00:39;;;;;;;4.23;2.60;;;19.40;99.90;;;;;;6125118;23;20417;-67
2021/08/27 10:03:21;;;;;;;5.60;2.73;;;19.30;99.90;;;;;;6124540;23;20429;-68
2021/08/27 10:05:49;;;;;;;5.83;3.37;;;19.20;99.90;;;;;;6125566;23;20855;-69
2021/08/27 10:08:19;;;;;;;6.27;2.87;;;19.20;99.90;;;;;;6125436;23;20716;-69
2021/08/27 10:10:53;;;;;;;3.70;2.40;;;19.40;99.90;;;;;;6126150;23;20401;-70
2021/08/27 10:13:22;;;;;;;2.90;2.40;;;19.40;99.90;;;;;;6124796;23;20817;-70
2021/08/27 10:15:50;;;;;;;4.50;2.53;;;19.20;99.90;;;;;;6125577;23;20960;-67
2021/08/27 10:18:18;;;;;;;4.13;2.90;;;19.00;99.90;;;;;;6125739;23;20390;-68
2021/08/27 10:20:47;;;;;;;3.60;2.40;;;19.10;99.90;;;;;;6125095;23;20397;-68
2021/08/27 10:23:20;;;;;;;2.43;2.03;;;19.30;99.90;;;;;;6124786;23;20437;-69
2021/08/27 10:25:50;;;;;;;3.57;2.50;;;19.40;99.90;;;;;;6125203;23;20425;-68
2021/08/27 10:28:18;;;;;;;4.30;2.60;;;19.50;99.90;;;;;;6125663;23;20406;-66
2021/08/27 10:30:59;;;;;;;3.00;2.37;;;19.40;99.90;;;;;;6125391;23;20394;-69
2021/08/27 10:34:03;;;;;;;3.63;2.33;;;19.40;99.90;;;;;;6099275;23;20390;-68
2021/08/27 10:36:50;;;;;;;3.20;1.80;;;19.40;99.90;;;;;;6124925;23;20920;-69
2021/08/27 10:39:41;;;;;;;4.13;2.07;;;19.30;99.90;;;;;;6125446;23;20386;-68
2021/08/27 10:42:31;;;;;;;3.27;2.40;;;19.40;99.90;;;;;;6125420;23;20400;-70
2021/08/27 10:44:58;;;;;;;4.53;2.30;;;19.60;99.90;;;;;;6124977;23;20464;-68
2021/08/27 10:47:26;;;;;;;5.07;1.97;;;19.70;99.90;;;;;;6125346;23;20398;-70
2021/08/27 10:50:01;;;;;;;7.27;2.97;;;19.80;99.90;;;;;;6124554;23;20410;-69
2021/08/27 10:52:34;;;;;;;4.70;2.87;;;19.70;99.90;;;;;;6124944;23;20385;-68
2021/08/27 10:55:37;;;;;;;5.80;2.53;;;19.60;99.90;;;;;;6124780;23;20395;-69
2021/08/27 10:58:05;;;;;;;3.30;2.57;;;19.50;99.90;;;;;;6125857;23;20394;-69
2021/08/27 11:00:36;;;;;;;6.33;2.37;;;19.40;99.90;;;;;;6125221;23;20411;-68
2021/08/27 11:03:04;;;;;;;4.57;2.90;;;19.30;99.90;;;;;;6124838;23;20440;-69
2021/08/27 11:05:37;;;;;;;5.10;2.03;;;19.40;99.90;;;;;;6124986;23;20444;-68
2021/08/27 11:08:06;;;;;;;5.37;2.50;;;19.50;99.90;;;;;;6124927;23;20433;-69
2021/08/27 11:10:38;;;;;;;6.97;3.00;;;19.60;99.90;;;;;;6125001;23;20409;-67
2021/08/27 11:13:12;;;;;;;4.60;2.47;;;19.70;99.90;;;;;;6124638;23;20417;-68
2021/08/27 11:15:40;;;;;;;5.73;2.27;;;20.10;99.90;;;;;;6124763;23;21212;-68
2021/08/27 11:18:34;;;;;;;5.90;2.60;;;20.30;99.90;;;;;;6125284;23;20393;-68
2021/08/27 11:21:36;;;;;;;2.70;2.40;;;20.20;99.90;;;;;;6125066;23;20853;-68
2021/08/27 11:24:14;;;;;;;3.30;2.07;;;20.10;99.90;;;;;;6120844;23;20460;-70
2021/08/27 11:26:43;;;;;;;7.70;2.67;;;20.30;99.90;;;;;;6125372;23;20429;-69
2021/08/27 11:29:38;;;;;;;2.40;2.20;;;20.50;99.90;;;;;;6125204;23;20488;-68
2021/08/27 11:32:11;;;;;;;4.70;2.20;;;20.60;99.90;;;;;;6125039;23;20444;-70
2021/08/27 11:34:54;;;;;;;3.67;2.57;;;20.90;99.90;;;;;;6124943;23;20393;-68
2021/08/27 11:37:23;;;;;;;5.80;3.10;;;20.80;99.90;;;;;;6124885;23;20397;-68
2021/08/27 11:39:51;;;;;;;2.03;1.67;;;20.60;99.90;;;;;;6123980;23;20447;-69
2021/08/27 11:42:19;;;;;;;7.63;2.53;;;20.50;99.90;;;;;;6124289;23;20395;-68
2021/08/27 11:45:04;;;;;;;4.60;2.57;;;20.50;99.90;;;;;;6125350;23;20463;-68
2021/08/27 11:47:45;;;;;;;6.13;1.97;;;20.40;99.90;;;;;;6125773;23;20402;-68
2021/08/27 11:50:14;;;;;;;4.57;2.50;;;20.50;99.90;;;;;;6124810;23;20401;-69
2021/08/27 11:52:43;;;;;;;3.90;1.80;;;20.70;99.90;;;;;;6124770;23;20399;-68
2021/08/27 11:55:14;;;;;;;4.50;2.00;;;21.00;99.90;;;;;;6125099;23;20482;-68
2021/08/27 11:57:53;;;;;;;6.57;2.60;;;21.20;99.90;;;;;;6125070;23;20397;-69
2021/08/27 12:00:23;;;;;;;3.67;1.80;;;21.20;99.90;;;;;;6125447;23;20851;-69
2021/08/27 12:02:57;;;;;;;4.40;2.63;;;21.20;99.90;;;;;;6125379;23;20398;-69
2021/08/27 12:05:25;;;;;;;2.70;2.00;;;21.00;99.90;;;;;;6124708;23;20931;-68
2021/08/27 12:07:59;;;;;;;3.40;2.10;;;20.80;99.90;;;;;;6125358;23;20394;-68
2021/08/27 12:10:28;;;;;;;4.60;1.93;;;21.20;99.90;;;;;;6127352;23;20397;-68
2021/08/27 12:12:56;;;;;;;4.60;2.23;;;21.40;99.90;;;;;;6126100;23;20419;-69
2021/08/27 12:15:27;;;;;;;3.83;1.87;;;21.20;99.90;;;;;;6126491;23;20512;-69
2021/08/27 12:17:56;;;;;;;4.50;2.10;;;21.00;99.90;;;;;;6126866;23;20391;-68
2021/08/27 12:20:24;;;;;;;3.80;2.40;;;20.90;99.90;;;;;;6126691;23;20389;-68
2021/08/27 12:22:55;;;;;;;2.30;1.80;;;21.10;99.90;;;;;;6127032;23;20394;-66
2021/08/27 12:25:28;;;;;;;3.70;2.20;;;21.40;99.90;;;;;;6126491;23;20481;-68
2021/08/27 12:27:57;;;;;;;3.73;1.47;;;21.60;99.90;;;;;;6126941;23;20483;-68
2021/08/27 12:30:26;;;;;;;3.17;1.60;;;21.80;99.90;;;;;;6127245;23;20399;-67
2021/08/27 12:32:55;;;;;;;2.90;1.73;;;21.90;99.90;;;;;;6125068;23;20404;-68
2021/08/27 12:35:28;;;;;;;4.67;1.30;;;22.30;99.90;;;;;;6126050;23;20429;-69
2021/08/27 12:37:56;;;;;;;6.20;2.10;;;22.50;99.90;;;;;;6127430;23;20398;-70
2021/08/27 12:40:25;;;;;;;3.37;1.57;;;22.50;99.90;;;;;;6126524;23;20405;-69
2021/08/27 12:43:02;;;;;;;2.80;1.90;;;22.80;99.90;;;;;;6126609;23;20397;-69
2021/08/27 12:45:43;;;;;;;3.43;1.87;;;23.00;99.90;;;;;;6125596;23;20449;-69
2021/08/27 12:48:11;;;;;;;2.10;1.60;;;22.80;99.90;;;;;;6126268;23;20389;-70
2021/08/27 12:50:49;;;;;;;2.47;1.90;;;22.60;99.90;;;;;;6126411;23;20844;-69
2021/08/27 12:53:18;;;;;;;2.27;1.80;;;22.40;99.90;;;;;;6125616;23;20437;-67
2021/08/27 12:55:45;;;;;;;2.80;1.73;;;22.10;99.90;;;;;;6125682;23;20899;-69
2021/08/27 12:58:12;;;;;;;3.90;2.47;;;21.90;99.90;;;;;;6126790;23;20396;-69
2021/08/27 13:00:41;;;;;;;2.30;2.03;;;21.70;99.90;;;;;;6125915;23;20439;-70
2021/08/27 13:03:11;;;;;;;3.73;2.63;;;21.60;99.90;;;;;;6125132;23;20492;-69
2021/08/27 13:05:40;;;;;;;5.63;2.70;;;21.50;99.90;;;;;;6124993;23;20456;-70
2021/08/27 13:08:13;;;;;;;4.37;3.07;;;21.50;99.90;;;;;;6124013;23;20401;-70